Time;durP1;ratioP1;P1;durP2;ratioP2;P2;SDS_P1;SDS_P2;PMS_P1;PMS_P2;Temp;Humidity;BMP_temperature;BMP_pressure;BME280_temperature;BME280_humidity;BME280_pressure;Samples;Min_cycle;Max_cycle;Signal;HPM_P1;HPM_P2
2023/02/15 00:00:25;;;;;;;;;;;4.70;1.00;;;;;;5046163;28;19909;-81
2023/02/15 00:02:51;;;;;;;;;;;4.70;1.00;;;;;;5068139;28;19912;-81
2023/02/15 00:05:16;;;;;;;;;;;4.60;1.00;;;;;;5074593;28;19909;-81
2023/02/15 00:07:42;;;;;;;;;;;4.60;1.00;;;;;;5074648;28;19969;-81
2023/02/15 00:10:07;;;;;;;;;;;4.70;1.00;;;;;;5056651;28;20003;-82
2023/02/15 00:12:33;;;;;;;;;;;4.60;1.00;;;;;;5074045;28;19999;-81
2023/02/15 00:14:58;;;;;;;;;;;4.60;1.00;;;;;;5064477;28;19913;-82
2023/02/15 00:17:27;;;;;;;;;;;4.60;1.00;;;;;;5056308;28;19914;-81
2023/02/15 00:19:52;;;;;;;;;;;4.50;1.00;;;;;;5074453;28;20309;-81
2023/02/15 00:22:18;;;;;;;;;;;4.50;1.00;;;;;;5056029;28;19915;-81
2023/02/15 00:24:43;;;;;;;;;;;4.50;1.00;;;;;;5074217;28;19908;-81
2023/02/15 00:27:09;;;;;;;;;;;4.50;1.00;;;;;;5074203;28;19921;-82
2023/02/15 00:29:34;;;;;;;;;;;4.50;1.00;;;;;;5074049;28;19916;-81
2023/02/15 00:31:59;;;;;;;;;;;4.50;1.00;;;;;;5056174;28;19978;-82
2023/02/15 00:34:26;;;;;;;;;;;4.50;1.00;;;;;;5074143;28;20395;-82
2023/02/15 00:36:52;;;;;;;;;;;4.40;1.00;;;;;;5056191;28;20262;-81
2023/02/15 00:39:18;;;;;;;;;;;4.40;1.00;;;;;;5056060;28;19915;-81
2023/02/15 00:41:43;;;;;;;;;;;4.40;1.00;;;;;;5073917;28;20297;-81
2023/02/15 00:44:09;;;;;;;;;;;4.40;1.00;;;;;;5073846;28;19909;-82
2023/02/15 00:46:35;;;;;;;;;;;4.30;1.00;;;;;;5074023;28;20469;-81
2023/02/15 00:49:00;;;;;;;;;;;4.30;1.00;;;;;;5073913;28;19935;-81
2023/02/15 00:51:26;;;;;;;;;;;4.40;1.00;;;;;;5055670;28;19950;-81
2023/02/15 00:53:51;;;;;;;;;;;4.30;1.00;;;;;;5055936;28;20532;-81
2023/02/15 00:56:17;;;;;;;;;;;4.30;1.00;;;;;;5073882;28;19913;-82
2023/02/15 00:58:42;;;;;;;;;;;4.30;1.00;;;;;;5055579;28;19919;-82
2023/02/15 01:01:10;;;;;;;;;;;4.30;1.00;;;;;;5055346;28;19954;-81
2023/02/15 01:03:35;;;;;;;;;;;4.20;1.00;;;;;;5073368;28;20281;-81
2023/02/15 01:06:01;;;;;;;;;;;4.30;1.00;;;;;;5073350;28;19958;-81
2023/02/15 01:08:26;;;;;;;;;;;4.20;1.00;;;;;;5073346;28;19952;-81
2023/02/15 01:10:52;;;;;;;;;;;4.20;1.00;;;;;;5073395;28;19962;-81
2023/02/15 01:13:18;;;;;;;;;;;4.20;1.00;;;;;;5055365;28;19908;-83
2023/02/15 01:15:44;;;;;;;;;;;4.20;1.00;;;;;;5073293;28;20049;-82
2023/02/15 01:18:09;;;;;;;;;;;4.20;1.00;;;;;;5073167;28;19923;-82
2023/02/15 01:20:38;;;;;;;;;;;4.20;1.00;;;;;;5073457;28;19908;-82
2023/02/15 01:23:04;;;;;;;;;;;4.20;1.00;;;;;;5072953;28;19909;-82
2023/02/15 01:25:30;;;;;;;;;;;4.20;1.00;;;;;;5073120;28;20003;-81
2023/02/15 01:27:55;;;;;;;;;;;4.20;1.00;;;;;;5073032;28;19990;-81
2023/02/15 01:30:21;;;;;;;;;;;4.20;1.00;;;;;;5072989;28;20263;-81
2023/02/15 01:32:46;;;;;;;;;;;4.20;1.00;;;;;;5072720;28;19935;-82
2023/02/15 01:35:12;;;;;;;;;;;4.20;1.00;;;;;;5054967;28;19916;-82
2023/02/15 01:37:37;;;;;;;;;;;4.20;1.00;;;;;;5055019;28;19909;-81
2023/02/15 01:40:04;;;;;;;;;;;4.20;1.00;;;;;;5072933;28;19916;-80
2023/02/15 01:42:30;;;;;;;;;;;4.20;1.00;;;;;;5072738;28;19912;-81
2023/02/15 01:45:00;;;;;;;;;;;4.10;1.00;;;;;;5072656;28;19909;-82
2023/02/15 01:47:32;;;;;;;;;;;4.10;1.00;;;;;;5072487;28;19915;-81
2023/02/15 01:50:08;;;;;;;;;;;4.10;1.00;;;;;;5072603;28;20011;-81
2023/02/15 01:52:35;;;;;;;;;;;4.10;1.00;;;;;;5072638;28;19919;-81
2023/02/15 01:55:02;;;;;;;;;;;4.10;1.00;;;;;;5054584;28;19993;-82
2023/02/15 01:57:28;;;;;;;;;;;4.00;1.00;;;;;;5072913;28;19947;-82
2023/02/15 01:59:56;;;;;;;;;;;4.00;1.00;;;;;;5054548;28;19961;-81
2023/02/15 02:02:24;;;;;;;;;;;4.00;1.00;;;;;;5072407;28;19915;-81
2023/02/15 02:04:55;;;;;;;;;;;4.00;1.00;;;;;;5072615;28;19912;-82
2023/02/15 02:07:23;;;;;;;;;;;4.00;1.00;;;;;;5064949;28;19913;-81
2023/02/15 02:09:48;;;;;;;;;;;3.90;1.00;;;;;;5015056;28;20000;-81
2023/02/15 02:12:15;;;;;;;;;;;3.90;1.00;;;;;;5014973;28;19996;-81
2023/02/15 02:14:41;;;;;;;;;;;3.90;1.00;;;;;;5032576;28;19917;-81
2023/02/15 02:17:15;;;;;;;;;;;3.90;1.00;;;;;;5032499;28;19909;-81
2023/02/15 02:20:00;;;;;;;;;;;3.90;1.00;;;;;;5032501;28;19913;-82
2023/02/15 02:22:37;;;;;;;;;;;3.90;1.00;;;;;;5014638;28;20287;-81
2023/02/15 02:25:22;;;;;;;;;;;3.90;1.00;;;;;;5014881;28;19913;-81
2023/02/15 02:27:50;;;;;;;;;;;3.80;1.00;;;;;;5032508;28;20291;-82
2023/02/15 02:30:25;;;;;;;;;;;3.80;1.00;;;;;;5014753;28;19971;-82
2023/02/15 02:33:09;;;;;;;;;;;3.80;1.00;;;;;;5032178;28;19909;-81
2023/02/15 02:35:53;;;;;;;;;;;3.80;1.00;;;;;;5032777;28;19913;-82
2023/02/15 02:38:21;;;;;;;;;;;3.80;1.00;;;;;;5032373;28;19999;-81
2023/02/15 02:40:59;;;;;;;;;;;3.70;5.50;;;;;;5032178;28;20374;-81
2023/02/15 02:43:24;;;;;;;;;;;3.70;5.80;;;;;;5032443;28;19932;-81
2023/02/15 02:45:52;;;;;;;;;;;3.70;4.50;;;;;;5032121;28;20394;-81
2023/02/15 02:48:20;;;;;;;;;;;3.70;3.10;;;;;;5032210;28;19935;-82
2023/02/15 02:50:46;;;;;;;;;;;3.70;3.30;;;;;;5014524;28;19994;-81
2023/02/15 02:53:11;;;;;;;;;;;3.70;4.30;;;;;;5032094;28;19917;-81
2023/02/15 02:55:49;;;;;;;;;;;3.60;4.50;;;;;;5031989;28;19971;-82
2023/02/15 02:58:33;;;;;;;;;;;3.60;6.30;;;;;;5014299;28;20371;-81
2023/02/15 03:01:10;;;;;;;;;;;3.60;7.40;;;;;;5035746;28;19909;-80
2023/02/15 03:03:51;;;;;;;;;;;3.60;7.00;;;;;;5035709;28;19953;-81
2023/02/15 03:06:23;;;;;;;;;;;3.60;4.20;;;;;;5036090;28;19909;-81
2023/02/15 03:08:53;;;;;;;;;;;3.60;7.10;;;;;;5018099;28;19909;-82
2023/02/15 03:11:19;;;;;;;;;;;3.60;8.90;;;;;;5017675;28;19913;-81
2023/02/15 03:13:46;;;;;;;;;;;3.50;9.60;;;;;;5035722;28;19917;-81
2023/02/15 03:16:25;;;;;;;;;;;3.50;9.30;;;;;;5035714;28;19987;-82
2023/02/15 03:18:56;;;;;;;;;;;3.50;10.70;;;;;;5035784;28;19913;-82
2023/02/15 03:21:25;;;;;;;;;;;3.50;11.70;;;;;;5035297;28;19917;-81
2023/02/15 03:23:53;;;;;;;;;;;3.40;13.70;;;;;;5035511;28;19913;-82
2023/02/15 03:26:20;;;;;;;;;;;3.40;13.20;;;;;;5035393;28;19916;-81
2023/02/15 03:28:46;;;;;;;;;;;3.40;18.30;;;;;;5035489;28;19935;-81
2023/02/15 03:31:13;;;;;;;;;;;3.40;18.00;;;;;;5017292;28;19959;-82
2023/02/15 03:33:42;;;;;;;;;;;3.40;18.00;;;;;;5035275;28;20355;-81
2023/02/15 03:36:31;;;;;;;;;;;3.30;19.20;;;;;;5035250;28;19909;-81
2023/02/15 03:38:59;;;;;;;;;;;3.30;19.70;;;;;;5015592;28;20008;-81
2023/02/15 03:41:25;;;;;;;;;;;3.30;19.00;;;;;;5034872;28;20405;-81
2023/02/15 03:44:04;;;;;;;;;;;3.30;18.60;;;;;;5035335;28;20092;-82
2023/02/15 03:47:05;;;;;;;;;;;3.30;19.20;;;;;;5035104;28;19913;-81
2023/02/15 03:49:47;;;;;;;;;;;3.30;19.50;;;;;;4977059;28;19920;-81
2023/02/15 03:52:14;;;;;;;;;;;3.30;20.50;;;;;;5030961;28;19909;-81
2023/02/15 03:54:43;;;;;;;;;;;3.20;20.00;;;;;;5034886;28;19943;-82
2023/02/15 04:02:54;;;;;;;;;;;3.10;23.40;;;;;;5034849;28;19954;-82
2023/02/15 04:05:20;;;;;;;;;;;3.10;26.20;;;;;;5034637;28;20359;-81
2023/02/15 04:07:45;;;;;;;;;;;3.10;28.50;;;;;;5016942;28;20047;-81
2023/02/15 04:13:14;;;;;;;;;;;3.10;24.50;;;;;;4953934;29;19918;-81
2023/02/15 04:26:36;;;;;;;;;;;3.10;25.80;;;;;;5034835;28;19915;-81
2023/02/15 04:29:02;;;;;;;;;;;3.00;31.30;;;;;;5034139;28;19909;-81
2023/02/15 04:31:27;;;;;;;;;;;3.00;29.00;;;;;;5016276;28;19909;-81
2023/02/15 04:33:52;;;;;;;;;;;3.10;29.40;;;;;;5034078;28;19970;-81
2023/02/15 04:36:18;;;;;;;;;;;3.10;27.70;;;;;;5034257;28;19916;-81
2023/02/15 04:38:43;;;;;;;;;;;3.00;24.40;;;;;;5033999;28;20260;-81
2023/02/15 04:41:10;;;;;;;;;;;3.10;26.30;;;;;;5016048;28;19920;-82
2023/02/15 04:43:35;;;;;;;;;;;3.00;25.50;;;;;;5015951;28;19968;-82
2023/02/15 04:46:01;;;;;;;;;;;3.00;29.60;;;;;;5034086;28;19909;-81
2023/02/15 04:48:27;;;;;;;;;;;3.00;29.30;;;;;;5033899;28;19948;-82
2023/02/15 04:50:52;;;;;;;;;;;3.00;28.00;;;;;;5033793;28;19917;-81
2023/02/15 04:53:18;;;;;;;;;;;2.90;31.50;;;;;;5034051;28;19916;-81
2023/02/15 04:55:43;;;;;;;;;;;2.90;33.10;;;;;;5015925;28;19956;-81
2023/02/15 04:58:09;;;;;;;;;;;2.90;33.80;;;;;;5033579;28;19943;-81
2023/02/15 05:00:34;;;;;;;;;;;2.90;35.80;;;;;;5033795;28;19915;-81
2023/02/15 05:02:59;;;;;;;;;;;2.90;36.50;;;;;;5033597;28;19944;-81
2023/02/15 05:05:25;;;;;;;;;;;2.90;31.90;;;;;;5033633;28;19917;-81
2023/02/15 05:07:51;;;;;;;;;;;2.80;33.40;;;;;;5015805;28;19913;-81
2023/02/15 05:10:16;;;;;;;;;;;2.80;35.90;;;;;;5033614;28;19971;-82
2023/02/15 05:12:41;;;;;;;;;;;2.80;36.30;;;;;;5032953;28;19960;-81
2023/02/15 05:15:07;;;;;;;;;;;2.80;38.00;;;;;;5033298;28;20051;-81
2023/02/15 05:17:33;;;;;;;;;;;2.80;33.00;;;;;;5033430;28;20367;-82
2023/02/15 05:19:59;;;;;;;;;;;2.80;36.00;;;;;;5015643;28;19924;-81
2023/02/15 05:22:24;;;;;;;;;;;2.80;37.40;;;;;;5014604;28;19909;-81
2023/02/15 05:30:18;;;;;;;;;;;2.80;30.60;;;;;;5033636;28;19932;-82
2023/02/15 05:32:43;;;;;;;;;;;2.80;34.80;;;;;;5032808;28;20370;-81
2023/02/15 05:35:12;;;;;;;;;;;2.80;34.90;;;;;;5015322;28;19913;-82
2023/02/15 05:37:37;;;;;;;;;;;2.90;35.00;;;;;;5015398;28;19909;-81
2023/02/15 05:40:03;;;;;;;;;;;2.80;30.20;;;;;;5032842;28;20332;-81
2023/02/15 05:42:28;;;;;;;;;;;2.80;34.20;;;;;;5032757;28;19917;-81
2023/02/15 05:44:54;;;;;;;;;;;2.80;30.00;;;;;;5032933;28;19909;-82
2023/02/15 05:47:19;;;;;;;;;;;2.80;34.10;;;;;;5015090;28;19913;-81
2023/02/15 05:49:45;;;;;;;;;;;2.80;33.10;;;;;;5032912;28;19917;-81
2023/02/15 05:52:11;;;;;;;;;;;2.80;30.70;;;;;;5032603;28;20270;-81
2023/02/15 06:01:11;;;;;;;;;;;2.70;29.10;;;;;;5053774;28;20469;-79
2023/02/15 06:03:39;;;;;;;;;;;2.70;33.50;;;;;;5053904;28;19917;-79
2023/02/15 06:09:44;;;;;;;;;;;2.70;35.50;;;;;;5048795;28;20309;-80
2023/02/15 06:12:53;;;;;;;;;;;2.60;34.60;;;;;;5033691;28;19948;-79
2023/02/15 06:15:52;;;;;;;;;;;2.60;41.30;;;;;;5060481;22;19920;-80
2023/02/15 06:19:04;;;;;;;;;;;2.60;43.70;;;;;;5073622;28;19978;-79
2023/02/15 06:40:11;;;;;;;;;;;2.60;40.30;;;;;;5029505;28;19917;-79
2023/02/15 06:42:59;;;;;;;;;;;2.60;35.50;;;;;;5054409;28;19968;-80
2023/02/15 06:49:22;;;;;;;;;;;2.60;32.00;;;;;;5057851;28;19909;-80
2023/02/15 06:52:34;;;;;;;;;;;;;;;;;;;;;
2023/02/15 06:55:32;;;;;;;;;;;2.60;29.40;;;;;;5018920;28;19965;-80
2023/02/15 06:58:27;;;;;;;;;;;2.60;29.60;;;;;;5022079;28;19963;-81
2023/02/15 07:25:03;;;;;;;;;;;2.90;18.60;;;;;;6154780;23;19920;-80
2023/02/15 07:28:09;;;;;;;;;;;2.90;14.30;;;;;;6233740;23;20333;-80
2023/02/15 08:02:22;;;;;;;;;;;3.20;2.70;;;;;;6102285;23;19916;-80
2023/02/15 08:05:20;;;;;;;;;;;3.30;2.00;;;;;;6202988;23;19933;-80
2023/02/15 08:13:26;;;;;;;;;;;3.40;1.00;;;;;;6096046;23;19912;-79
2023/02/15 08:15:52;;;;;;;;;;;3.50;1.00;;;;;;6095741;23;19929;-78
2023/02/15 08:18:20;;;;;;;;;;;3.50;1.00;;;;;;6221725;22;19913;-79
2023/02/15 08:24:24;;;;;;;;;;;3.60;1.00;;;;;;6094690;23;19912;-77
2023/02/15 08:27:20;;;;;;;;;;;3.80;1.00;;;;;;6092222;23;19912;-78
2023/02/15 08:39:46;;;;;;;;;;;4.10;1.00;;;;;;6038654;23;21837;-79
2023/02/15 08:42:25;;;;;;;;;;;4.20;1.00;;;;;;6017274;23;19915;-79
2023/02/15 08:57:49;;;;;;;;;;;4.80;1.00;;;;;;6139496;22;20310;-79
2023/02/15 09:03:39;;;;;;;;;;;5.00;1.00;;;;;;6123516;23;19940;-78
2023/02/15 09:09:38;;;;;;;;;;;5.10;1.00;;;;;;6123699;23;19935;-79
2023/02/15 09:12:09;;;;;;;;;;;5.30;1.00;;;;;;6225433;23;19905;-78
2023/02/15 09:14:49;;;;;;;;;;;5.40;1.00;;;;;;6214185;23;19904;-78
2023/02/15 09:17:44;;;;;;;;;;;5.50;1.00;;;;;;6123932;23;20260;-78
2023/02/15 09:23:35;;;;;;;;;;;5.60;1.00;;;;;;6122920;23;19905;-78
2023/02/15 09:29:30;;;;;;;;;;;6.00;1.00;;;;;;6308933;22;19911;-78
2023/02/15 09:34:48;;;;;;;;;;;6.30;99.90;;;;;;6310274;22;19937;-77
2023/02/15 09:37:28;;;;;;;;;;;6.50;99.90;;;;;;6310542;22;20220;-78
2023/02/15 09:40:17;;;;;;;;;;;6.70;99.90;;;;;;6309170;22;19911;-78
2023/02/15 09:43:21;;;;;;;;;;;;;;;;;;;;;
2023/02/15 09:48:58;;;;;;;;;;;7.00;1.00;;;;;;6310779;22;19903;-78
2023/02/15 09:51:58;;;;;;;;;;;7.20;1.00;;;;;;6309349;22;19961;-78
2023/02/15 09:55:05;;;;;;;;;;;7.20;1.00;;;;;;6310101;22;19977;-81
2023/02/15 09:57:54;;;;;;;;;;;7.30;99.90;;;;;;6184597;23;19911;-78
2023/02/15 10:07:19;;;;;;;;;;;;;;;;;;;;;
2023/02/15 10:13:43;;;;;;;;;;;8.00;99.90;;;;;;6300117;22;20258;-78
2023/02/15 10:24:54;;;;;;;;;;;8.60;99.90;;;;;;6297450;22;19915;-79
2023/02/15 10:27:45;;;;;;;;;;;8.80;1.00;;;;;;6311950;22;19903;-79
2023/02/15 10:33:59;;;;;;;;;;;;;;;;;;;;;
2023/02/15 10:46:01;;;;;;;;;;;9.60;99.90;;;;;;6246541;23;19904;-79
2023/02/15 10:48:46;;;;;;;;;;;9.70;1.00;;;;;;6237053;22;19903;-79
2023/02/15 10:51:44;;;;;;;;;;;9.90;1.00;;;;;;6310803;22;19903;-79
2023/02/15 10:54:28;;;;;;;;;;;10.00;99.90;;;;;;6283797;22;19930;-79
2023/02/15 10:57:34;;;;;;;;;;;10.10;99.90;;;;;;6284411;22;19938;-79
2023/02/15 11:00:11;;;;;;;;;;;10.40;1.00;;;;;;6283175;22;19907;-79
2023/02/15 11:02:49;;;;;;;;;;;10.60;99.90;;;;;;6283960;22;20326;-79
2023/02/15 11:05:40;;;;;;;;;;;10.90;99.90;;;;;;6283143;22;19974;-79
2023/02/15 11:08:09;;;;;;;;;;;11.30;55.80;;;;;;6281375;22;19910;-79
2023/02/15 11:11:15;;;;;;;;;;;;;;;;;;;;;
2023/02/15 11:14:00;;;;;;;;;;;13.70;1.00;;;;;;6310750;22;20346;-79
2023/02/15 11:20:15;;;;;;;;;;;19.20;99.90;;;;;;6216023;23;20449;-79
2023/02/15 11:28:56;;;;;;;;;;;23.60;99.90;;;;;;6225395;22;19904;-80
2023/02/15 11:34:31;;;;;;;;;;;26.00;1.00;;;;;;6310196;22;19907;-80
2023/02/15 11:43:17;;;;;;;;;;;28.40;1.00;;;;;;6310200;22;19926;-80
2023/02/15 12:11:26;;;;;;;;;;;31.30;1.00;;;;;;6128103;23;19951;-80
2023/02/15 12:14:29;;;;;;;;;;;31.60;1.00;;;;;;6127839;23;19904;-79
2023/02/15 12:26:38;;;;;;;;;;;29.60;1.00;;;;;;6068950;23;19906;-79
2023/02/15 12:29:28;;;;;;;;;;;29.10;1.00;;;;;;6219393;23;20239;-79
2023/02/15 12:32:00;;;;;;;;;;;28.60;1.00;;;;;;6249810;23;19927;-80
2023/02/15 12:34:50;;;;;;;;;;;27.10;1.00;;;;;;6223372;23;19911;-78
2023/02/15 12:40:56;;;;;;;;;;;24.80;99.90;;;;;;6230097;23;19904;-79
2023/02/15 12:54:00;;;;;;;;;;;22.90;99.90;;;;;;6155612;23;19968;-79
2023/02/15 13:00:17;;;;;;;;;;;20.80;99.90;;;;;;6039765;23;20454;-79
2023/02/15 13:21:20;;;;;;;;;;;27.00;99.90;;;;;;6281290;22;19914;-79
2023/02/15 13:30:42;;;;;;;;;;;;;;;;;;;;;
2023/02/15 13:39:49;;;;;;;;;;;26.80;99.90;;;;;;6278144;22;20338;-79
2023/02/15 13:42:36;;;;;;;;;;;25.60;99.90;;;;;;6277539;22;19907;-79
2023/02/15 13:45:23;;;;;;;;;;;25.00;99.90;;;;;;6311795;22;20323;-79
2023/02/15 13:47:59;;;;;;;;;;;24.40;99.90;;;;;;6306927;22;19914;-79
2023/02/15 13:50:56;;;;;;;;;;;24.30;99.90;;;;;;6311037;22;19922;-79
2023/02/15 13:53:40;;;;;;;;;;;24.10;99.90;;;;;;6203701;22;19921;-79
2023/02/15 13:56:41;;;;;;;;;;;23.80;99.90;;;;;;6310499;22;19903;-79
2023/02/15 13:59:21;;;;;;;;;;;22.30;99.90;;;;;;6308045;22;20005;-81
2023/02/15 14:02:20;;;;;;;;;;;20.70;99.90;;;;;;6309468;22;19907;-78
2023/02/15 14:05:22;;;;;;;;;;;19.80;99.90;;;;;;6311468;22;19922;-79
2023/02/15 14:07:59;;;;;;;;;;;19.20;99.90;;;;;;6302008;22;19907;-79
2023/02/15 14:10:43;;;;;;;;;;;18.70;99.90;;;;;;6308587;22;19911;-79
2023/02/15 14:16:38;;;;;;;;;;;18.00;99.90;;;;;;6245306;22;19904;-79
2023/02/15 14:19:29;;;;;;;;;;;18.30;99.90;;;;;;6309791;22;20238;-78
2023/02/15 14:22:35;;;;;;;;;;;18.90;99.90;;;;;;6310550;22;19902;-78
2023/02/15 14:25:29;;;;;;;;;;;;;;;;;;;;;
2023/02/15 14:28:19;;;;;;;;;;;19.70;99.90;;;;;;6246606;23;20462;-79
2023/02/15 14:31:02;;;;;;;;;;;19.70;99.90;;;;;;6206162;23;19907;-78
2023/02/15 14:33:35;;;;;;;;;;;19.40;99.90;;;;;;6220266;23;19904;-79
2023/02/15 14:36:20;;;;;;;;;;;18.80;99.90;;;;;;6261168;22;19977;-79
2023/02/15 14:41:00;;;;;;;;;;;18.50;99.90;;;;;;6335190;22;20350;-78
2023/02/15 14:41:58;;;;;;;;;;;18.20;99.90;;;;;;6308717;22;19903;-78
2023/02/15 14:44:38;;;;;;;;;;;17.80;99.90;;;;;;6307666;22;19918;-78
2023/02/15 14:47:10;;;;;;;;;;;17.50;99.90;;;;;;6309754;22;19953;-78
2023/02/15 14:49:36;;;;;;;;;;;17.10;99.90;;;;;;6310211;22;19907;-78
2023/02/15 14:52:04;;;;;;;;;;;17.00;99.90;;;;;;6307321;22;19907;-78
2023/02/15 14:54:32;;;;;;;;;;;16.80;99.90;;;;;;6310238;22;19953;-78
2023/02/15 14:57:00;;;;;;;;;;;16.50;99.90;;;;;;6307740;22;19934;-78
2023/02/15 14:59:35;;;;;;;;;;;16.50;99.90;;;;;;6308449;22;19909;-79
2023/02/15 15:02:07;;;;;;;;;;;16.40;99.90;;;;;;6307510;22;19902;-79
2023/02/15 15:04:35;;;;;;;;;;;16.30;99.90;;;;;;6308418;22;19903;-78
2023/02/15 15:07:09;;;;;;;;;;;16.10;99.90;;;;;;6309904;22;19902;-78
2023/02/15 15:09:36;;;;;;;;;;;16.00;99.90;;;;;;6310043;22;19938;-78
2023/02/15 15:12:22;;;;;;;;;;;15.80;99.90;;;;;;6307843;22;19903;-78
2023/02/15 15:15:02;;;;;;;;;;;15.50;99.90;;;;;;6223975;22;19920;-80
2023/02/15 15:17:39;;;;;;;;;;;15.30;99.90;;;;;;6246295;23;20327;-80
2023/02/15 15:20:31;;;;;;;;;;;15.20;99.90;;;;;;6246422;23;19942;-80
2023/02/15 15:23:28;;;;;;;;;;;15.20;99.90;;;;;;6247470;23;19927;-80
2023/02/15 15:26:26;;;;;;;;;;;15.10;99.90;;;;;;6126812;23;19912;-81
2023/02/15 15:29:00;;;;;;;;;;;14.90;99.90;;;;;;6211764;23;19911;-80
2023/02/15 15:31:40;;;;;;;;;;;14.60;1.00;;;;;;6247622;23;19927;-79
2023/02/15 15:39:28;;;;;;;;;;;14.40;1.00;;;;;;6280713;22;19941;-78
2023/02/15 15:42:24;;;;;;;;;;;14.30;1.00;;;;;;6250623;22;19908;-78
2023/02/15 15:48:13;;;;;;;;;;;14.10;1.00;;;;;;6248798;23;19942;-79
2023/02/15 15:50:53;;;;;;;;;;;;;;;;;;;;;
2023/02/15 15:53:58;;;;;;;;;;;;;;;;;;;;;
2023/02/15 16:03:01;;;;;;;;;;;13.60;1.00;;;;;;6248183;23;19907;-78
2023/02/15 16:12:18;;;;;;;;;;;13.30;1.00;;;;;;6181721;23;19911;-79
2023/02/15 16:21:26;;;;;;;;;;;13.10;1.00;;;;;;6122280;23;20357;-81
2023/02/15 16:26:48;;;;;;;;;;;12.80;1.00;;;;;;6278531;22;19919;-82
2023/02/15 16:29:15;;;;;;;;;;;12.70;1.00;;;;;;6251162;22;19907;-82
2023/02/15 16:31:41;;;;;;;;;;;12.60;1.00;;;;;;6253601;22;19903;-82
2023/02/15 16:34:47;;;;;;;;;;;;;;;;;;;;;
2023/02/15 16:40:06;;;;;;;;;;;12.30;99.90;;;;;;6278875;22;19956;-81
2023/02/15 16:42:31;;;;;;;;;;;12.20;99.90;;;;;;6278252;22;19907;-81
2023/02/15 16:45:07;;;;;;;;;;;12.10;99.90;;;;;;6276758;22;19907;-81
2023/02/15 16:47:37;;;;;;;;;;;12.00;99.90;;;;;;6278704;22;20312;-81
2023/02/15 16:50:03;;;;;;;;;;;11.80;1.00;;;;;;6251781;22;19926;-80
2023/02/15 16:52:29;;;;;;;;;;;11.70;80.00;;;;;;6252102;22;19953;-80
2023/02/15 16:54:58;;;;;;;;;;;11.60;99.90;;;;;;6251323;22;19989;-80
2023/02/15 16:57:25;;;;;;;;;;;11.50;1.00;;;;;;6252076;22;19907;-81
2023/02/15 16:59:53;;;;;;;;;;;11.50;99.90;;;;;;6251531;22;19903;-80
2023/02/15 17:02:24;;;;;;;;;;;11.40;1.00;;;;;;6278885;22;20264;-80
2023/02/15 17:05:07;;;;;;;;;;;11.40;1.00;;;;;;6278953;22;19910;-79
2023/02/15 17:07:33;;;;;;;;;;;11.20;1.00;;;;;;6251218;22;19907;-80
2023/02/15 17:09:59;;;;;;;;;;;11.10;1.00;;;;;;6277667;22;20232;-80
2023/02/15 17:12:50;;;;;;;;;;;10.90;1.00;;;;;;6251345;22;19910;-80
2023/02/15 17:15:30;;;;;;;;;;;10.80;99.90;;;;;;6277404;22;19910;-79
2023/02/15 17:18:21;;;;;;;;;;;10.60;1.00;;;;;;6250103;22;19986;-80
2023/02/15 17:20:47;;;;;;;;;;;10.60;99.90;;;;;;6261530;22;19978;-80
2023/02/15 17:23:39;;;;;;;;;;;10.50;1.00;;;;;;6249227;22;19930;-80
2023/02/15 17:26:22;;;;;;;;;;;10.40;90.40;;;;;;6271124;22;19926;-81
2023/02/15 17:29:36;;;;;;;;;;;10.30;99.90;;;;;;6250973;22;19910;-81
2023/02/15 17:32:02;;;;;;;;;;;10.20;1.00;;;;;;6209915;22;20331;-81
2023/02/15 17:34:54;;;;;;;;;;;10.10;99.90;;;;;;6250992;22;19904;-81
2023/02/15 17:37:37;;;;;;;;;;;10.00;1.00;;;;;;6277453;22;19903;-81
2023/02/15 17:40:21;;;;;;;;;;;9.90;99.90;;;;;;6277258;22;19914;-81
2023/02/15 17:42:46;;;;;;;;;;;9.80;99.90;;;;;;6249693;22;19903;-80
2023/02/15 17:45:13;;;;;;;;;;;9.70;1.00;;;;;;6275009;22;19910;-81
2023/02/15 17:47:40;;;;;;;;;;;9.70;1.00;;;;;;6250532;22;19903;-81
2023/02/15 17:50:06;;;;;;;;;;;9.60;1.00;;;;;;6275341;22;19994;-81
2023/02/15 17:52:31;;;;;;;;;;;9.70;99.90;;;;;;6249660;22;19938;-81
2023/02/15 17:57:41;;;;;;;;;;;9.80;88.70;;;;;;6277349;22;20292;-81
2023/02/15 18:13:52;;;;;;;;;;;9.90;99.90;;;;;;6277908;22;19933;-80
2023/02/15 18:16:20;;;;;;;;;;;10.00;1.00;;;;;;6278147;22;20331;-80
2023/02/15 18:18:46;;;;;;;;;;;10.00;1.00;;;;;;6277451;22;19903;-80
2023/02/15 18:21:15;;;;;;;;;;;9.90;1.00;;;;;;6277220;22;19907;-80
2023/02/15 18:23:41;;;;;;;;;;;9.90;1.00;;;;;;6275621;22;19903;-80
2023/02/15 18:26:09;;;;;;;;;;;9.90;99.90;;;;;;6271262;22;19962;-80
2023/02/15 18:28:34;;;;;;;;;;;9.90;99.90;;;;;;6246855;22;19908;-80
2023/02/15 18:31:00;;;;;;;;;;;9.90;99.90;;;;;;6270408;22;19981;-80
2023/02/15 18:33:28;;;;;;;;;;;9.90;1.00;;;;;;6257066;22;19911;-81
2023/02/15 18:35:54;;;;;;;;;;;9.80;99.90;;;;;;6253110;23;20284;-81
2023/02/15 18:38:20;;;;;;;;;;;9.80;1.00;;;;;;6246040;23;19911;-79
2023/02/15 18:40:46;;;;;;;;;;;9.80;34.70;;;;;;6246514;22;19904;-80
2023/02/15 18:43:12;;;;;;;;;;;9.70;28.50;;;;;;6244422;23;19934;-80
2023/02/15 18:45:38;;;;;;;;;;;9.60;99.90;;;;;;6270586;22;19935;-80
2023/02/15 18:48:07;;;;;;;;;;;9.60;99.90;;;;;;6245121;23;19903;-81
2023/02/15 18:50:33;;;;;;;;;;;9.50;1.00;;;;;;6245008;23;19930;-80
2023/02/15 18:52:58;;;;;;;;;;;9.40;1.00;;;;;;6244755;23;19910;-79
2023/02/15 18:55:26;;;;;;;;;;;9.40;1.00;;;;;;6246064;22;19903;-80
2023/02/15 18:57:53;;;;;;;;;;;9.30;1.00;;;;;;6246202;22;19908;-80
2023/02/15 19:00:19;;;;;;;;;;;9.20;21.50;;;;;;6270804;22;19904;-80
2023/02/15 19:02:45;;;;;;;;;;;9.10;99.90;;;;;;6270220;22;19979;-80
2023/02/15 19:05:11;;;;;;;;;;;9.10;99.90;;;;;;6244522;23;19904;-80
2023/02/15 19:07:37;;;;;;;;;;;9.00;37.80;;;;;;6270633;22;19908;-80
2023/02/15 19:10:05;;;;;;;;;;;9.00;99.90;;;;;;6258480;22;19975;-80
2023/02/15 19:12:30;;;;;;;;;;;9.00;1.00;;;;;;6260716;23;19982;-80
2023/02/15 19:14:56;;;;;;;;;;;9.00;1.00;;;;;;6262279;23;19911;-79
2023/02/15 19:17:22;;;;;;;;;;;8.90;1.00;;;;;;6263729;22;19904;-80
2023/02/15 19:19:48;;;;;;;;;;;8.90;27.50;;;;;;6261348;23;19903;-79
2023/02/15 19:22:14;;;;;;;;;;;8.90;1.00;;;;;;6251767;23;19907;-80
2023/02/15 19:24:41;;;;;;;;;;;8.90;6.00;;;;;;6275187;22;19915;-80
2023/02/15 19:27:10;;;;;;;;;;;8.90;10.30;;;;;;6249477;23;19911;-80
2023/02/15 19:29:36;;;;;;;;;;;8.90;32.70;;;;;;6250199;23;20294;-80
2023/02/15 19:32:01;;;;;;;;;;;8.80;16.30;;;;;;6250709;23;19911;-80
2023/02/15 19:34:27;;;;;;;;;;;8.80;94.80;;;;;;6249260;23;19903;-80
2023/02/15 19:36:53;;;;;;;;;;;8.80;47.00;;;;;;6251255;23;19922;-81
2023/02/15 19:39:23;;;;;;;;;;;8.80;40.40;;;;;;6250922;22;19904;-80
2023/02/15 19:41:50;;;;;;;;;;;8.80;34.20;;;;;;6248867;23;19910;-80
2023/02/15 19:44:16;;;;;;;;;;;8.80;43.20;;;;;;6250659;22;19904;-81
2023/02/15 19:46:41;;;;;;;;;;;8.80;70.20;;;;;;6249338;23;20224;-80
2023/02/15 19:49:08;;;;;;;;;;;8.70;69.90;;;;;;6248920;23;19950;-80
2023/02/15 19:51:34;;;;;;;;;;;8.80;51.70;;;;;;6249087;23;19910;-80
2023/02/15 19:53:59;;;;;;;;;;;8.70;94.40;;;;;;6250876;23;19904;-80
2023/02/15 19:56:26;;;;;;;;;;;8.70;99.90;;;;;;6250222;23;20357;-80
2023/02/15 19:58:53;;;;;;;;;;;8.60;99.90;;;;;;6274118;22;20335;-80
2023/02/15 20:01:21;;;;;;;;;;;8.60;99.90;;;;;;6249430;23;19927;-80
2023/02/15 20:03:46;;;;;;;;;;;8.60;99.90;;;;;;6250475;22;19904;-80
2023/02/15 20:06:13;;;;;;;;;;;8.50;99.90;;;;;;6248583;23;19942;-80
2023/02/15 20:08:40;;;;;;;;;;;8.40;99.90;;;;;;6275060;22;19935;-80
2023/02/15 20:11:08;;;;;;;;;;;8.40;99.90;;;;;;6251404;22;19908;-80
2023/02/15 20:13:34;;;;;;;;;;;8.30;99.90;;;;;;6250219;23;19919;-80
2023/02/15 20:16:03;;;;;;;;;;;8.20;99.90;;;;;;6250347;23;19903;-80
2023/02/15 20:18:29;;;;;;;;;;;8.20;99.90;;;;;;6275278;22;19903;-80
2023/02/15 20:20:55;;;;;;;;;;;8.20;99.90;;;;;;6250511;23;19911;-80
2023/02/15 20:23:22;;;;;;;;;;;8.10;99.90;;;;;;6251679;22;19928;-80
2023/02/15 20:25:48;;;;;;;;;;;8.10;99.90;;;;;;6249845;23;20299;-80
2023/02/15 20:28:15;;;;;;;;;;;8.10;99.90;;;;;;6275719;22;19904;-80
2023/02/15 20:30:41;;;;;;;;;;;8.10;99.90;;;;;;6249791;23;19907;-80
2023/02/15 20:33:06;;;;;;;;;;;8.10;99.90;;;;;;6251121;22;19911;-80
2023/02/15 20:35:32;;;;;;;;;;;8.00;99.90;;;;;;6275379;22;19930;-80
2023/02/15 20:38:01;;;;;;;;;;;8.10;99.90;;;;;;6251316;23;20307;-80
2023/02/15 20:40:28;;;;;;;;;;;8.10;99.90;;;;;;6251406;22;19903;-80
2023/02/15 20:42:54;;;;;;;;;;;8.00;99.90;;;;;;6251109;22;19904;-80
2023/02/15 20:45:21;;;;;;;;;;;7.90;99.90;;;;;;6274689;22;19904;-80
2023/02/15 20:47:47;;;;;;;;;;;7.90;99.90;;;;;;6251029;22;19907;-80
2023/02/15 20:50:14;;;;;;;;;;;7.80;99.90;;;;;;6250381;22;19971;-80
2023/02/15 20:52:39;;;;;;;;;;;7.80;1.00;;;;;;6249160;23;19903;-81
2023/02/15 21:06:11;;;;;;;;;;;7.70;1.00;;;;;;6126012;23;20329;-80
2023/02/15 21:09:06;;;;;;;;;;;7.70;1.00;;;;;;6124202;22;19905;-82
2023/02/15 21:11:47;;;;;;;;;;;7.60;1.00;;;;;;6092546;22;19971;-80
2023/02/15 21:14:19;;;;;;;;;;;7.60;1.00;;;;;;6123764;22;19905;-80
2023/02/15 21:17:06;;;;;;;;;;;7.60;1.00;;;;;;6124308;22;19983;-78
2023/02/15 21:19:34;;;;;;;;;;;7.60;1.00;;;;;;6124136;22;19913;-80
2023/02/15 21:25:25;;;;;;;;;;;7.50;1.00;;;;;;6137901;22;19921;-82